Stoke Newington, United Kingdom
Current Conditions -  °F | °C
As of 6:50 AM on Thursday 27 Nov 2014 (Local Time) from EGLC Reporting Station
Drizzle Drizzle  
Wind Chill: 52°   Ceiling: 800
Heat Index: 52°   Visibility: 3mi
Dew Point: 52°   Wind: 5mph
Humidity: 100%   Direction: 250°WSW
Pressure: 29.62"   Gusts: NA
Location:  51.56°N, 0.08°W
Report Text: EGLC 270650Z 25004KT 4900 -DZ BR FEW004 SCT006 BKN008 11/11 Q1003
Loading
Personal Weather Stations






























Interactive Weather Map New forecast layout! Learn more

10-Day Weather Forecast

Advertisements
Track Severe Weather on mobile